sensor_id;sensor_type;location;lat;lon;timestamp;P1;durP1;ratioP1;P2;durP2;ratioP2
49842;SDS011;55559;48.898;9.184;2022-11-25T00:01:03;33.97;;;8.00;;
49842;SDS011;55559;48.898;9.184;2022-11-25T00:03:33;25.63;;;9.43;;
49842;SDS011;55559;48.898;9.184;2022-11-25T00:06:08;33.88;;;9.88;;
49842;SDS011;55559;48.898;9.184;2022-11-25T00:08:37;31.67;;;9.68;;
49842;SDS011;55559;48.898;9.184;2022-11-25T00:11:05;25.52;;;8.82;;
49842;SDS011;55559;48.898;9.184;2022-11-25T00:13:33;36.10;;;10.15;;
49842;SDS011;55559;48.898;9.184;2022-11-25T00:16:01;25.77;;;6.93;;
49842;SDS011;55559;48.898;9.184;2022-11-25T00:18:29;31.55;;;9.32;;
49842;SDS011;55559;48.898;9.184;2022-11-25T00:21:03;30.00;;;8.73;;
49842;SDS011;55559;48.898;9.184;2022-11-25T00:23:32;21.55;;;8.57;;
49842;SDS011;55559;48.898;9.184;2022-11-25T00:26:04;28.10;;;7.97;;
49842;SDS011;55559;48.898;9.184;2022-11-25T00:28:33;28.85;;;10.63;;
49842;SDS011;55559;48.898;9.184;2022-11-25T00:31:05;24.00;;;8.15;;
49842;SDS011;55559;48.898;9.184;2022-11-25T00:33:33;25.92;;;8.20;;
49842;SDS011;55559;48.898;9.184;2022-11-25T00:36:03;27.45;;;8.05;;
49842;SDS011;55559;48.898;9.184;2022-11-25T00:38:32;22.80;;;8.75;;
49842;SDS011;55559;48.898;9.184;2022-11-25T00:40:59;28.25;;;10.75;;
49842;SDS011;55559;48.898;9.184;2022-11-25T00:43:44;35.28;;;10.77;;
49842;SDS011;55559;48.898;9.184;2022-11-25T00:46:29;40.28;;;13.75;;
49842;SDS011;55559;48.898;9.184;2022-11-25T00:48:57;37.17;;;10.80;;
49842;SDS011;55559;48.898;9.184;2022-11-25T00:51:26;30.38;;;11.65;;
49842;SDS011;55559;48.898;9.184;2022-11-25T00:53:54;28.30;;;10.82;;
49842;SDS011;55559;48.898;9.184;2022-11-25T00:56:21;28.77;;;10.48;;
49842;SDS011;55559;48.898;9.184;2022-11-25T00:58:49;25.67;;;10.82;;
49842;SDS011;55559;48.898;9.184;2022-11-25T01:01:19;22.02;;;8.98;;
49842;SDS011;55559;48.898;9.184;2022-11-25T01:03:47;32.50;;;9.68;;
49842;SDS011;55559;48.898;9.184;2022-11-25T01:06:15;22.83;;;9.35;;
49842;SDS011;55559;48.898;9.184;2022-11-25T01:08:44;34.40;;;10.30;;
49842;SDS011;55559;48.898;9.184;2022-11-25T01:11:12;29.35;;;9.75;;
49842;SDS011;55559;48.898;9.184;2022-11-25T01:13:41;31.25;;;10.57;;
49842;SDS011;55559;48.898;9.184;2022-11-25T01:16:10;27.00;;;9.27;;
49842;SDS011;55559;48.898;9.184;2022-11-25T01:18:39;29.33;;;8.70;;
49842;SDS011;55559;48.898;9.184;2022-11-25T01:21:07;27.63;;;7.85;;
49842;SDS011;55559;48.898;9.184;2022-11-25T01:23:36;23.95;;;8.05;;
49842;SDS011;55559;48.898;9.184;2022-11-25T01:26:06;25.33;;;8.05;;
49842;SDS011;55559;48.898;9.184;2022-11-25T01:28:36;38.25;;;10.68;;
49842;SDS011;55559;48.898;9.184;2022-11-25T01:31:04;23.90;;;7.10;;
49842;SDS011;55559;48.898;9.184;2022-11-25T01:33:33;38.47;;;7.80;;
49842;SDS011;55559;48.898;9.184;2022-11-25T01:36:02;24.70;;;9.60;;
49842;SDS011;55559;48.898;9.184;2022-11-25T01:38:30;28.35;;;8.57;;
49842;SDS011;55559;48.898;9.184;2022-11-25T01:40:59;18.02;;;7.05;;
49842;SDS011;55559;48.898;9.184;2022-11-25T01:43:29;24.17;;;6.50;;
49842;SDS011;55559;48.898;9.184;2022-11-25T01:45:57;18.65;;;6.47;;
49842;SDS011;55559;48.898;9.184;2022-11-25T01:48:31;24.42;;;7.43;;
49842;SDS011;55559;48.898;9.184;2022-11-25T01:51:07;24.58;;;6.45;;
49842;SDS011;55559;48.898;9.184;2022-11-25T01:53:45;14.50;;;5.93;;
49842;SDS011;55559;48.898;9.184;2022-11-25T01:56:13;17.65;;;6.50;;
49842;SDS011;55559;48.898;9.184;2022-11-25T01:58:43;16.08;;;6.88;;
49842;SDS011;55559;48.898;9.184;2022-11-25T02:01:12;20.67;;;6.45;;
49842;SDS011;55559;48.898;9.184;2022-11-25T02:03:41;19.40;;;6.03;;
49842;SDS011;55559;48.898;9.184;2022-11-25T02:06:13;13.48;;;5.38;;
49842;SDS011;55559;48.898;9.184;2022-11-25T02:08:47;17.80;;;5.13;;
49842;SDS011;55559;48.898;9.184;2022-11-25T02:11:16;23.33;;;6.32;;
49842;SDS011;55559;48.898;9.184;2022-11-25T02:13:48;17.05;;;6.10;;
49842;SDS011;55559;48.898;9.184;2022-11-25T02:16:17;22.80;;;6.88;;
49842;SDS011;55559;48.898;9.184;2022-11-25T02:18:47;23.17;;;7.30;;
49842;SDS011;55559;48.898;9.184;2022-11-25T02:21:17;14.30;;;5.97;;
49842;SDS011;55559;48.898;9.184;2022-11-25T02:23:52;16.80;;;5.70;;
49842;SDS011;55559;48.898;9.184;2022-11-25T02:28:53;14.80;;;5.47;;
49842;SDS011;55559;48.898;9.184;2022-11-25T02:31:22;20.73;;;5.68;;
49842;SDS011;55559;48.898;9.184;2022-11-25T02:33:50;16.45;;;6.20;;
49842;SDS011;55559;48.898;9.184;2022-11-25T02:36:18;18.65;;;5.45;;
49842;SDS011;55559;48.898;9.184;2022-11-25T02:38:49;21.73;;;6.55;;
49842;SDS011;55559;48.898;9.184;2022-11-25T02:41:20;19.10;;;6.18;;
49842;SDS011;55559;48.898;9.184;2022-11-25T02:43:58;20.83;;;5.05;;
49842;SDS011;55559;48.898;9.184;2022-11-25T02:46:27;20.30;;;6.03;;
49842;SDS011;55559;48.898;9.184;2022-11-25T02:48:56;18.00;;;5.82;;
49842;SDS011;55559;48.898;9.184;2022-11-25T02:51:25;14.18;;;4.47;;
49842;SDS011;55559;48.898;9.184;2022-11-25T02:53:56;13.70;;;5.18;;
49842;SDS011;55559;48.898;9.184;2022-11-25T02:56:29;13.88;;;4.60;;
49842;SDS011;55559;48.898;9.184;2022-11-25T02:58:59;15.18;;;4.78;;
49842;SDS011;55559;48.898;9.184;2022-11-25T03:01:28;19.60;;;5.72;;
49842;SDS011;55559;48.898;9.184;2022-11-25T03:03:56;19.42;;;5.22;;
49842;SDS011;55559;48.898;9.184;2022-11-25T03:06:26;14.48;;;4.97;;
49842;SDS011;55559;48.898;9.184;2022-11-25T03:08:54;14.18;;;5.03;;
49842;SDS011;55559;48.898;9.184;2022-11-25T03:11:22;16.08;;;4.93;;
49842;SDS011;55559;48.898;9.184;2022-11-25T03:14:11;18.77;;;4.53;;
49842;SDS011;55559;48.898;9.184;2022-11-25T03:16:40;12.18;;;4.35;;
49842;SDS011;55559;48.898;9.184;2022-11-25T03:19:08;13.38;;;3.80;;
49842;SDS011;55559;48.898;9.184;2022-11-25T03:21:36;21.75;;;4.75;;
49842;SDS011;55559;48.898;9.184;2022-11-25T03:24:03;10.27;;;4.50;;
49842;SDS011;55559;48.898;9.184;2022-11-25T03:26:31;13.27;;;4.45;;
49842;SDS011;55559;48.898;9.184;2022-11-25T03:28:59;14.93;;;4.13;;
49842;SDS011;55559;48.898;9.184;2022-11-25T03:31:28;13.65;;;4.53;;
49842;SDS011;55559;48.898;9.184;2022-11-25T03:33:56;14.40;;;4.30;;
49842;SDS011;55559;48.898;9.184;2022-11-25T03:36:23;17.95;;;4.28;;
49842;SDS011;55559;48.898;9.184;2022-11-25T03:38:51;11.75;;;4.85;;
49842;SDS011;55559;48.898;9.184;2022-11-25T03:41:18;19.25;;;5.65;;
49842;SDS011;55559;48.898;9.184;2022-11-25T03:43:46;14.30;;;5.60;;
49842;SDS011;55559;48.898;9.184;2022-11-25T03:46:15;15.73;;;6.47;;
49842;SDS011;55559;48.898;9.184;2022-11-25T03:48:45;20.63;;;6.47;;
49842;SDS011;55559;48.898;9.184;2022-11-25T03:51:12;16.10;;;5.60;;
49842;SDS011;55559;48.898;9.184;2022-11-25T03:53:42;21.70;;;6.05;;
49842;SDS011;55559;48.898;9.184;2022-11-25T03:56:09;19.42;;;6.15;;
49842;SDS011;55559;48.898;9.184;2022-11-25T03:58:37;17.40;;;5.95;;
49842;SDS011;55559;48.898;9.184;2022-11-25T04:01:06;28.73;;;6.53;;
49842;SDS011;55559;48.898;9.184;2022-11-25T04:03:33;18.10;;;6.13;;
49842;SDS011;55559;48.898;9.184;2022-11-25T04:06:02;16.13;;;5.22;;
49842;SDS011;55559;48.898;9.184;2022-11-25T04:08:30;13.43;;;4.25;;
49842;SDS011;55559;48.898;9.184;2022-11-25T04:10:58;14.43;;;4.47;;
49842;SDS011;55559;48.898;9.184;2022-11-25T04:13:29;18.38;;;5.18;;
49842;SDS011;55559;48.898;9.184;2022-11-25T04:15:56;19.90;;;5.32;;
49842;SDS011;55559;48.898;9.184;2022-11-25T04:18:24;21.88;;;5.03;;
49842;SDS011;55559;48.898;9.184;2022-11-25T04:20:55;19.60;;;5.65;;
49842;SDS011;55559;48.898;9.184;2022-11-25T04:23:24;20.00;;;4.43;;
49842;SDS011;55559;48.898;9.184;2022-11-25T04:25:59;19.15;;;5.85;;
49842;SDS011;55559;48.898;9.184;2022-11-25T04:28:33;16.52;;;6.78;;
49842;SDS011;55559;48.898;9.184;2022-11-25T04:31:04;14.10;;;5.93;;
49842;SDS011;55559;48.898;9.184;2022-11-25T04:33:32;21.83;;;6.45;;
49842;SDS011;55559;48.898;9.184;2022-11-25T04:36:00;20.30;;;5.28;;
49842;SDS011;55559;48.898;9.184;2022-11-25T04:38:29;26.52;;;6.65;;
49842;SDS011;55559;48.898;9.184;2022-11-25T04:40:57;17.27;;;5.82;;
49842;SDS011;55559;48.898;9.184;2022-11-25T04:43:26;15.05;;;6.07;;
49842;SDS011;55559;48.898;9.184;2022-11-25T04:46:04;13.73;;;5.00;;
49842;SDS011;55559;48.898;9.184;2022-11-25T04:48:32;20.05;;;6.22;;
49842;SDS011;55559;48.898;9.184;2022-11-25T04:50:59;20.42;;;6.20;;
49842;SDS011;55559;48.898;9.184;2022-11-25T04:53:27;15.48;;;5.95;;
49842;SDS011;55559;48.898;9.184;2022-11-25T04:55:56;11.90;;;5.65;;
49842;SDS011;55559;48.898;9.184;2022-11-25T04:58:24;18.98;;;5.95;;
49842;SDS011;55559;48.898;9.184;2022-11-25T05:01:09;17.95;;;5.82;;
49842;SDS011;55559;48.898;9.184;2022-11-25T05:03:41;13.80;;;4.80;;
49842;SDS011;55559;48.898;9.184;2022-11-25T05:06:09;20.52;;;6.07;;
49842;SDS011;55559;48.898;9.184;2022-11-25T05:08:36;26.50;;;6.72;;
49842;SDS011;55559;48.898;9.184;2022-11-25T05:11:05;15.00;;;5.63;;
49842;SDS011;55559;48.898;9.184;2022-11-25T05:13:33;21.60;;;6.18;;
49842;SDS011;55559;48.898;9.184;2022-11-25T05:16:01;13.57;;;6.32;;
49842;SDS011;55559;48.898;9.184;2022-11-25T05:18:29;14.57;;;6.60;;
49842;SDS011;55559;48.898;9.184;2022-11-25T05:20:59;13.57;;;5.20;;
49842;SDS011;55559;48.898;9.184;2022-11-25T05:23:28;16.75;;;6.68;;
49842;SDS011;55559;48.898;9.184;2022-11-25T05:25:57;53.33;;;18.58;;
49842;SDS011;55559;48.898;9.184;2022-11-25T05:28:36;25.77;;;12.38;;
49842;SDS011;55559;48.898;9.184;2022-11-25T05:31:03;17.40;;;7.45;;
49842;SDS011;55559;48.898;9.184;2022-11-25T05:33:31;20.65;;;8.90;;
49842;SDS011;55559;48.898;9.184;2022-11-25T05:35:59;18.73;;;7.68;;
49842;SDS011;55559;48.898;9.184;2022-11-25T05:38:41;22.85;;;7.07;;
49842;SDS011;55559;48.898;9.184;2022-11-25T05:41:13;30.70;;;9.98;;
49842;SDS011;55559;48.898;9.184;2022-11-25T05:43:44;22.58;;;9.45;;
49842;SDS011;55559;48.898;9.184;2022-11-25T05:46:12;20.67;;;9.20;;
49842;SDS011;55559;48.898;9.184;2022-11-25T05:48:49;24.13;;;6.35;;
49842;SDS011;55559;48.898;9.184;2022-11-25T05:51:19;15.32;;;6.78;;
49842;SDS011;55559;48.898;9.184;2022-11-25T05:53:48;19.40;;;7.07;;
49842;SDS011;55559;48.898;9.184;2022-11-25T05:56:17;23.85;;;7.45;;
49842;SDS011;55559;48.898;9.184;2022-11-25T05:58:55;26.65;;;8.20;;
49842;SDS011;55559;48.898;9.184;2022-11-25T06:01:34;30.85;;;11.95;;
49842;SDS011;55559;48.898;9.184;2022-11-25T06:04:02;18.05;;;6.35;;
49842;SDS011;55559;48.898;9.184;2022-11-25T06:06:30;25.90;;;8.77;;
49842;SDS011;55559;48.898;9.184;2022-11-25T06:08:59;23.92;;;7.80;;
49842;SDS011;55559;48.898;9.184;2022-11-25T06:11:28;23.15;;;8.68;;
49842;SDS011;55559;48.898;9.184;2022-11-25T06:13:57;23.77;;;7.72;;
49842;SDS011;55559;48.898;9.184;2022-11-25T06:16:25;29.02;;;9.32;;
49842;SDS011;55559;48.898;9.184;2022-11-25T06:19:03;13.32;;;7.38;;
49842;SDS011;55559;48.898;9.184;2022-11-25T06:21:31;24.85;;;6.60;;
49842;SDS011;55559;48.898;9.184;2022-11-25T06:23:59;20.05;;;8.48;;
49842;SDS011;55559;48.898;9.184;2022-11-25T06:26:29;19.42;;;7.97;;
49842;SDS011;55559;48.898;9.184;2022-11-25T06:28:58;26.33;;;9.38;;
49842;SDS011;55559;48.898;9.184;2022-11-25T06:31:25;16.90;;;6.60;;
49842;SDS011;55559;48.898;9.184;2022-11-25T06:34:07;23.17;;;7.57;;
49842;SDS011;55559;48.898;9.184;2022-11-25T06:36:37;20.38;;;7.85;;
49842;SDS011;55559;48.898;9.184;2022-11-25T06:39:04;18.52;;;6.53;;
49842;SDS011;55559;48.898;9.184;2022-11-25T06:41:32;12.15;;;6.32;;
49842;SDS011;55559;48.898;9.184;2022-11-25T06:44:01;28.33;;;7.25;;
49842;SDS011;55559;48.898;9.184;2022-11-25T06:46:29;23.08;;;7.93;;
49842;SDS011;55559;48.898;9.184;2022-11-25T06:48:57;31.98;;;8.25;;
49842;SDS011;55559;48.898;9.184;2022-11-25T06:51:25;23.98;;;7.68;;
49842;SDS011;55559;48.898;9.184;2022-11-25T06:53:53;26.83;;;8.98;;
49842;SDS011;55559;48.898;9.184;2022-11-25T06:56:21;20.70;;;8.77;;
49842;SDS011;55559;48.898;9.184;2022-11-25T06:58:49;22.58;;;8.93;;
49842;SDS011;55559;48.898;9.184;2022-11-25T07:01:19;22.08;;;8.18;;
49842;SDS011;55559;48.898;9.184;2022-11-25T07:03:48;29.92;;;8.38;;
49842;SDS011;55559;48.898;9.184;2022-11-25T07:06:18;24.50;;;8.15;;
49842;SDS011;55559;48.898;9.184;2022-11-25T07:08:46;17.27;;;8.98;;
49842;SDS011;55559;48.898;9.184;2022-11-25T07:11:15;30.50;;;7.88;;
49842;SDS011;55559;48.898;9.184;2022-11-25T07:13:44;49.58;;;9.27;;
49842;SDS011;55559;48.898;9.184;2022-11-25T07:16:12;27.30;;;7.88;;
49842;SDS011;55559;48.898;9.184;2022-11-25T07:18:42;25.33;;;7.22;;
49842;SDS011;55559;48.898;9.184;2022-11-25T07:21:10;23.80;;;7.30;;
49842;SDS011;55559;48.898;9.184;2022-11-25T07:23:39;15.60;;;6.53;;
49842;SDS011;55559;48.898;9.184;2022-11-25T07:26:08;29.67;;;15.25;;
49842;SDS011;55559;48.898;9.184;2022-11-25T07:28:37;21.45;;;9.18;;
49842;SDS011;55559;48.898;9.184;2022-11-25T07:31:06;19.42;;;7.30;;
49842;SDS011;55559;48.898;9.184;2022-11-25T07:33:35;19.88;;;7.40;;
49842;SDS011;55559;48.898;9.184;2022-11-25T07:36:05;16.20;;;7.07;;
49842;SDS011;55559;48.898;9.184;2022-11-25T07:38:34;20.33;;;8.48;;
49842;SDS011;55559;48.898;9.184;2022-11-25T07:41:03;18.20;;;8.75;;
49842;SDS011;55559;48.898;9.184;2022-11-25T07:43:32;20.08;;;7.43;;
49842;SDS011;55559;48.898;9.184;2022-11-25T07:46:09;24.30;;;7.25;;
49842;SDS011;55559;48.898;9.184;2022-11-25T07:48:38;19.35;;;6.93;;
49842;SDS011;55559;48.898;9.184;2022-11-25T07:51:13;16.00;;;5.53;;
49842;SDS011;55559;48.898;9.184;2022-11-25T07:53:42;21.35;;;5.93;;
49842;SDS011;55559;48.898;9.184;2022-11-25T07:56:10;23.73;;;5.38;;
49842;SDS011;55559;48.898;9.184;2022-11-25T07:58:38;16.88;;;5.47;;
49842;SDS011;55559;48.898;9.184;2022-11-25T08:01:07;13.07;;;5.20;;
49842;SDS011;55559;48.898;9.184;2022-11-25T08:03:37;16.83;;;5.00;;
49842;SDS011;55559;48.898;9.184;2022-11-25T08:06:05;18.45;;;6.90;;
49842;SDS011;55559;48.898;9.184;2022-11-25T08:08:36;18.05;;;7.65;;
49842;SDS011;55559;48.898;9.184;2022-11-25T08:11:05;19.60;;;7.07;;
49842;SDS011;55559;48.898;9.184;2022-11-25T08:13:33;10.95;;;6.53;;
49842;SDS011;55559;48.898;9.184;2022-11-25T08:16:00;10.93;;;4.88;;
49842;SDS011;55559;48.898;9.184;2022-11-25T08:18:28;23.33;;;5.40;;
49842;SDS011;55559;48.898;9.184;2022-11-25T08:20:57;13.48;;;4.25;;
49842;SDS011;55559;48.898;9.184;2022-11-25T08:23:29;19.77;;;5.45;;
49842;SDS011;55559;48.898;9.184;2022-11-25T08:26:00;16.25;;;5.55;;
49842;SDS011;55559;48.898;9.184;2022-11-25T08:28:29;17.75;;;6.13;;
49842;SDS011;55559;48.898;9.184;2022-11-25T08:31:00;15.55;;;6.30;;
49842;SDS011;55559;48.898;9.184;2022-11-25T08:33:29;14.60;;;5.30;;
49842;SDS011;55559;48.898;9.184;2022-11-25T08:35:56;11.70;;;4.70;;
49842;SDS011;55559;48.898;9.184;2022-11-25T08:38:24;13.90;;;4.80;;
49842;SDS011;55559;48.898;9.184;2022-11-25T08:40:51;14.30;;;4.63;;
49842;SDS011;55559;48.898;9.184;2022-11-25T08:43:20;19.27;;;6.55;;
49842;SDS011;55559;48.898;9.184;2022-11-25T08:45:48;19.58;;;5.85;;
49842;SDS011;55559;48.898;9.184;2022-11-25T08:48:15;18.00;;;6.15;;
49842;SDS011;55559;48.898;9.184;2022-11-25T08:50:46;20.40;;;6.13;;
49842;SDS011;55559;48.898;9.184;2022-11-25T08:53:15;23.50;;;7.63;;
49842;SDS011;55559;48.898;9.184;2022-11-25T08:55:43;20.70;;;7.35;;
49842;SDS011;55559;48.898;9.184;2022-11-25T08:58:11;25.58;;;7.30;;
49842;SDS011;55559;48.898;9.184;2022-11-25T09:00:39;15.60;;;6.97;;
49842;SDS011;55559;48.898;9.184;2022-11-25T09:03:07;20.42;;;7.32;;
49842;SDS011;55559;48.898;9.184;2022-11-25T09:05:37;21.20;;;8.35;;
49842;SDS011;55559;48.898;9.184;2022-11-25T09:08:08;21.00;;;6.22;;
49842;SDS011;55559;48.898;9.184;2022-11-25T09:10:36;16.63;;;5.40;;
49842;SDS011;55559;48.898;9.184;2022-11-25T09:13:05;18.55;;;4.82;;
49842;SDS011;55559;48.898;9.184;2022-11-25T09:15:35;16.05;;;4.72;;
49842;SDS011;55559;48.898;9.184;2022-11-25T09:18:04;15.73;;;4.40;;
49842;SDS011;55559;48.898;9.184;2022-11-25T09:20:33;19.13;;;7.55;;
49842;SDS011;55559;48.898;9.184;2022-11-25T09:23:04;26.17;;;8.20;;
49842;SDS011;55559;48.898;9.184;2022-11-25T09:25:33;31.05;;;10.90;;
49842;SDS011;55559;48.898;9.184;2022-11-25T09:28:01;27.85;;;10.43;;
49842;SDS011;55559;48.898;9.184;2022-11-25T09:30:28;15.52;;;4.95;;
49842;SDS011;55559;48.898;9.184;2022-11-25T09:32:57;13.13;;;5.20;;
49842;SDS011;55559;48.898;9.184;2022-11-25T09:35:26;48.50;;;18.73;;
49842;SDS011;55559;48.898;9.184;2022-11-25T09:37:53;18.45;;;7.32;;
49842;SDS011;55559;48.898;9.184;2022-11-25T09:40:25;11.63;;;5.40;;
49842;SDS011;55559;48.898;9.184;2022-11-25T09:43:03;20.67;;;7.72;;
49842;SDS011;55559;48.898;9.184;2022-11-25T09:46:02;26.75;;;14.32;;
49842;SDS011;55559;48.898;9.184;2022-11-25T09:48:58;21.08;;;8.48;;
49842;SDS011;55559;48.898;9.184;2022-11-25T09:51:36;15.50;;;7.47;;
49842;SDS011;55559;48.898;9.184;2022-11-25T09:54:15;19.00;;;6.10;;
49842;SDS011;55559;48.898;9.184;2022-11-25T09:56:48;13.75;;;4.82;;
49842;SDS011;55559;48.898;9.184;2022-11-25T09:59:19;18.02;;;6.65;;
49842;SDS011;55559;48.898;9.184;2022-11-25T10:01:52;20.10;;;6.85;;
49842;SDS011;55559;48.898;9.184;2022-11-25T10:04:24;16.73;;;7.35;;
49842;SDS011;55559;48.898;9.184;2022-11-25T10:06:57;11.85;;;4.78;;
49842;SDS011;55559;48.898;9.184;2022-11-25T10:09:27;14.02;;;3.63;;
49842;SDS011;55559;48.898;9.184;2022-11-25T10:11:58;14.75;;;3.70;;
49842;SDS011;55559;48.898;9.184;2022-11-25T10:14:33;15.85;;;3.97;;
49842;SDS011;55559;48.898;9.184;2022-11-25T10:17:10;12.98;;;3.65;;
49842;SDS011;55559;48.898;9.184;2022-11-25T10:19:45;10.32;;;4.10;;
49842;SDS011;55559;48.898;9.184;2022-11-25T10:22:24;12.27;;;3.60;;
49842;SDS011;55559;48.898;9.184;2022-11-25T10:24:55;14.80;;;5.53;;
49842;SDS011;55559;48.898;9.184;2022-11-25T10:27:26;15.45;;;3.90;;
49842;SDS011;55559;48.898;9.184;2022-11-25T10:30:02;12.20;;;4.53;;
49842;SDS011;55559;48.898;9.184;2022-11-25T10:32:39;11.82;;;3.58;;
49842;SDS011;55559;48.898;9.184;2022-11-25T10:35:14;9.57;;;3.15;;
49842;SDS011;55559;48.898;9.184;2022-11-25T10:37:48;9.82;;;3.08;;
49842;SDS011;55559;48.898;9.184;2022-11-25T10:40:20;16.80;;;6.68;;
49842;SDS011;55559;48.898;9.184;2022-11-25T10:42:47;13.55;;;4.35;;
49842;SDS011;55559;48.898;9.184;2022-11-25T10:45:15;10.45;;;3.85;;
49842;SDS011;55559;48.898;9.184;2022-11-25T10:47:49;15.40;;;4.18;;
49842;SDS011;55559;48.898;9.184;2022-11-25T10:50:43;10.98;;;4.30;;
49842;SDS011;55559;48.898;9.184;2022-11-25T10:55:55;20.77;;;9.88;;
49842;SDS011;55559;48.898;9.184;2022-11-25T10:58:26;30.63;;;15.05;;
49842;SDS011;55559;48.898;9.184;2022-11-25T11:01:03;64.00;;;35.72;;
49842;SDS011;55559;48.898;9.184;2022-11-25T11:03:38;35.55;;;16.30;;
49842;SDS011;55559;48.898;9.184;2022-11-25T11:06:09;17.85;;;7.80;;
49842;SDS011;55559;48.898;9.184;2022-11-25T11:08:56;12.65;;;4.78;;
49842;SDS011;55559;48.898;9.184;2022-11-25T11:11:24;14.80;;;4.05;;
49842;SDS011;55559;48.898;9.184;2022-11-25T11:14:05;12.18;;;3.53;;
49842;SDS011;55559;48.898;9.184;2022-11-25T11:16:40;12.98;;;2.42;;
49842;SDS011;55559;48.898;9.184;2022-11-25T11:19:19;11.88;;;3.65;;
49842;SDS011;55559;48.898;9.184;2022-11-25T11:21:48;12.25;;;4.13;;
49842;SDS011;55559;48.898;9.184;2022-11-25T11:24:25;16.95;;;4.38;;
49842;SDS011;55559;48.898;9.184;2022-11-25T11:27:01;17.20;;;4.75;;
49842;SDS011;55559;48.898;9.184;2022-11-25T11:29:31;21.52;;;5.20;;
49842;SDS011;55559;48.898;9.184;2022-11-25T11:32:00;25.98;;;7.13;;
49842;SDS011;55559;48.898;9.184;2022-11-25T11:34:39;21.20;;;5.13;;
49842;SDS011;55559;48.898;9.184;2022-11-25T11:37:23;15.07;;;5.28;;
49842;SDS011;55559;48.898;9.184;2022-11-25T11:40:11;16.10;;;4.65;;
49842;SDS011;55559;48.898;9.184;2022-11-25T11:42:50;10.30;;;3.80;;
49842;SDS011;55559;48.898;9.184;2022-11-25T11:45:37;11.85;;;4.00;;
49842;SDS011;55559;48.898;9.184;2022-11-25T11:48:19;11.68;;;3.83;;
49842;SDS011;55559;48.898;9.184;2022-11-25T11:50:52;14.85;;;3.20;;
49842;SDS011;55559;48.898;9.184;2022-11-25T11:53:29;17.23;;;2.20;;
49842;SDS011;55559;48.898;9.184;2022-11-25T11:56:03;12.90;;;3.22;;
49842;SDS011;55559;48.898;9.184;2022-11-25T11:58:39;7.88;;;2.97;;
49842;SDS011;55559;48.898;9.184;2022-11-25T12:01:20;14.40;;;3.40;;
49842;SDS011;55559;48.898;9.184;2022-11-25T12:03:59;10.32;;;3.08;;
49842;SDS011;55559;48.898;9.184;2022-11-25T12:06:30;10.32;;;2.75;;
49842;SDS011;55559;48.898;9.184;2022-11-25T12:09:02;15.25;;;2.97;;
49842;SDS011;55559;48.898;9.184;2022-11-25T12:11:37;11.38;;;2.47;;
49842;SDS011;55559;48.898;9.184;2022-11-25T12:14:10;11.88;;;2.63;;
49842;SDS011;55559;48.898;9.184;2022-11-25T12:16:48;8.52;;;1.85;;
49842;SDS011;55559;48.898;9.184;2022-11-25T12:19:22;8.77;;;2.13;;
49842;SDS011;55559;48.898;9.184;2022-11-25T12:21:59;12.48;;;2.22;;
49842;SDS011;55559;48.898;9.184;2022-11-25T12:24:35;11.02;;;2.28;;
49842;SDS011;55559;48.898;9.184;2022-11-25T12:27:10;11.60;;;2.65;;
49842;SDS011;55559;48.898;9.184;2022-11-25T12:29:43;11.38;;;2.47;;
49842;SDS011;55559;48.898;9.184;2022-11-25T12:32:28;12.82;;;1.70;;
49842;SDS011;55559;48.898;9.184;2022-11-25T12:35:17;10.57;;;1.83;;
49842;SDS011;55559;48.898;9.184;2022-11-25T12:37:53;12.18;;;2.08;;
49842;SDS011;55559;48.898;9.184;2022-11-25T12:40:28;17.80;;;4.45;;
49842;SDS011;55559;48.898;9.184;2022-11-25T12:43:03;9.80;;;3.42;;
49842;SDS011;55559;48.898;9.184;2022-11-25T12:45:39;17.02;;;3.88;;
49842;SDS011;55559;48.898;9.184;2022-11-25T12:48:09;15.18;;;3.00;;
49842;SDS011;55559;48.898;9.184;2022-11-25T12:50:40;15.45;;;2.88;;
49842;SDS011;55559;48.898;9.184;2022-11-25T12:53:15;12.02;;;2.70;;
49842;SDS011;55559;48.898;9.184;2022-11-25T12:55:53;13.55;;;2.70;;
49842;SDS011;55559;48.898;9.184;2022-11-25T12:58:36;10.52;;;2.92;;
49842;SDS011;55559;48.898;9.184;2022-11-25T13:07:17;16.38;;;2.83;;
49842;SDS011;55559;48.898;9.184;2022-11-25T13:13:00;11.25;;;3.38;;
49842;SDS011;55559;48.898;9.184;2022-11-25T13:15:38;9.32;;;2.53;;
49842;SDS011;55559;48.898;9.184;2022-11-25T13:20:47;9.57;;;2.63;;
49842;SDS011;55559;48.898;9.184;2022-11-25T13:23:21;12.95;;;3.80;;
49842;SDS011;55559;48.898;9.184;2022-11-25T13:25:53;8.98;;;2.22;;
49842;SDS011;55559;48.898;9.184;2022-11-25T13:29:00;9.30;;;3.50;;
49842;SDS011;55559;48.898;9.184;2022-11-25T13:31:34;15.70;;;3.35;;
49842;SDS011;55559;48.898;9.184;2022-11-25T13:34:25;13.23;;;3.22;;
49842;SDS011;55559;48.898;9.184;2022-11-25T13:36:54;11.50;;;3.05;;
49842;SDS011;55559;48.898;9.184;2022-11-25T13:39:28;10.77;;;2.70;;
49842;SDS011;55559;48.898;9.184;2022-11-25T13:41:58;9.85;;;3.97;;
49842;SDS011;55559;48.898;9.184;2022-11-25T13:44:28;11.75;;;3.90;;
49842;SDS011;55559;48.898;9.184;2022-11-25T13:47:20;11.00;;;1.92;;
49842;SDS011;55559;48.898;9.184;2022-11-25T13:49:50;13.45;;;2.30;;
49842;SDS011;55559;48.898;9.184;2022-11-25T13:52:33;7.47;;;1.63;;
49842;SDS011;55559;48.898;9.184;2022-11-25T13:55:06;9.02;;;2.03;;
49842;SDS011;55559;48.898;9.184;2022-11-25T13:57:47;11.55;;;1.52;;
49842;SDS011;55559;48.898;9.184;2022-11-25T14:00:48;9.93;;;1.73;;
49842;SDS011;55559;48.898;9.184;2022-11-25T14:03:46;10.38;;;2.33;;
49842;SDS011;55559;48.898;9.184;2022-11-25T14:06:19;12.02;;;1.83;;
49842;SDS011;55559;48.898;9.184;2022-11-25T14:09:01;16.88;;;1.40;;
49842;SDS011;55559;48.898;9.184;2022-11-25T14:11:36;11.77;;;1.20;;
49842;SDS011;55559;48.898;9.184;2022-11-25T14:14:19;9.85;;;0.98;;
49842;SDS011;55559;48.898;9.184;2022-11-25T14:17:02;7.93;;;1.05;;
49842;SDS011;55559;48.898;9.184;2022-11-25T14:19:50;13.82;;;1.10;;
49842;SDS011;55559;48.898;9.184;2022-11-25T14:22:40;9.10;;;1.40;;
49842;SDS011;55559;48.898;9.184;2022-11-25T14:25:28;11.32;;;1.25;;
49842;SDS011;55559;48.898;9.184;2022-11-25T14:28:04;21.23;;;7.75;;
49842;SDS011;55559;48.898;9.184;2022-11-25T14:30:39;30.70;;;12.77;;
49842;SDS011;55559;48.898;9.184;2022-11-25T14:33:11;13.32;;;1.85;;
49842;SDS011;55559;48.898;9.184;2022-11-25T14:35:45;10.55;;;1.02;;
49842;SDS011;55559;48.898;9.184;2022-11-25T14:38:16;16.20;;;1.83;;
49842;SDS011;55559;48.898;9.184;2022-11-25T14:40:49;10.73;;;1.33;;
49842;SDS011;55559;48.898;9.184;2022-11-25T14:43:21;19.27;;;3.13;;
49842;SDS011;55559;48.898;9.184;2022-11-25T14:48:35;11.85;;;2.15;;
49842;SDS011;55559;48.898;9.184;2022-11-25T14:51:05;16.10;;;1.77;;
49842;SDS011;55559;48.898;9.184;2022-11-25T14:53:37;14.25;;;1.83;;
49842;SDS011;55559;48.898;9.184;2022-11-25T14:56:06;14.15;;;1.60;;
49842;SDS011;55559;48.898;9.184;2022-11-25T14:58:38;8.82;;;1.40;;
49842;SDS011;55559;48.898;9.184;2022-11-25T15:01:08;17.65;;;1.58;;
49842;SDS011;55559;48.898;9.184;2022-11-25T15:03:45;11.90;;;1.20;;
49842;SDS011;55559;48.898;9.184;2022-11-25T15:06:15;7.40;;;1.60;;
49842;SDS011;55559;48.898;9.184;2022-11-25T15:08:44;17.88;;;1.30;;
49842;SDS011;55559;48.898;9.184;2022-11-25T15:11:21;19.15;;;2.25;;
49842;SDS011;55559;48.898;9.184;2022-11-25T15:13:52;19.05;;;5.70;;
49842;SDS011;55559;48.898;9.184;2022-11-25T15:16:24;27.23;;;8.48;;
49842;SDS011;55559;48.898;9.184;2022-11-25T15:18:58;10.57;;;2.08;;
49842;SDS011;55559;48.898;9.184;2022-11-25T15:21:30;10.18;;;1.85;;